sensor_id;sensor_type;location;lat;lon;timestamp;P1;durP1;ratioP1;P2;durP2;ratioP2
78887;SDS011;68276;49.326;8.690;2023-05-07T00:00:16;2.42;;;1.15;;
78887;SDS011;68276;49.326;8.690;2023-05-07T00:02:43;3.03;;;0.90;;
78887;SDS011;68276;49.326;8.690;2023-05-07T00:05:09;2.42;;;0.88;;
78887;SDS011;68276;49.326;8.690;2023-05-07T00:07:35;2.33;;;0.80;;
78887;SDS011;68276;49.326;8.690;2023-05-07T00:10:00;5.20;;;1.08;;
78887;SDS011;68276;49.326;8.690;2023-05-07T00:12:26;4.35;;;1.00;;
78887;SDS011;68276;49.326;8.690;2023-05-07T00:14:52;1.92;;;0.90;;
78887;SDS011;68276;49.326;8.690;2023-05-07T00:17:17;3.10;;;0.90;;
78887;SDS011;68276;49.326;8.690;2023-05-07T00:19:43;3.10;;;0.93;;
78887;SDS011;68276;49.326;8.690;2023-05-07T00:22:08;4.40;;;0.95;;
78887;SDS011;68276;49.326;8.690;2023-05-07T00:24:34;3.85;;;0.95;;
78887;SDS011;68276;49.326;8.690;2023-05-07T00:26:59;3.33;;;1.00;;
78887;SDS011;68276;49.326;8.690;2023-05-07T00:29:25;3.13;;;1.00;;
78887;SDS011;68276;49.326;8.690;2023-05-07T00:31:50;3.42;;;1.00;;
78887;SDS011;68276;49.326;8.690;2023-05-07T00:34:16;3.25;;;1.10;;
78887;SDS011;68276;49.326;8.690;2023-05-07T00:36:41;4.00;;;1.00;;
78887;SDS011;68276;49.326;8.690;2023-05-07T00:39:07;2.95;;;1.00;;
78887;SDS011;68276;49.326;8.690;2023-05-07T00:41:32;2.93;;;1.03;;
78887;SDS011;68276;49.326;8.690;2023-05-07T00:43:57;2.70;;;1.00;;
78887;SDS011;68276;49.326;8.690;2023-05-07T00:46:23;3.75;;;1.00;;
78887;SDS011;68276;49.326;8.690;2023-05-07T00:48:52;2.22;;;0.88;;
78887;SDS011;68276;49.326;8.690;2023-05-07T00:51:18;3.08;;;1.00;;
78887;SDS011;68276;49.326;8.690;2023-05-07T00:53:44;1.95;;;0.98;;
78887;SDS011;68276;49.326;8.690;2023-05-07T00:56:11;2.28;;;1.00;;
78887;SDS011;68276;49.326;8.690;2023-05-07T00:58:37;9.05;;;1.30;;
78887;SDS011;68276;49.326;8.690;2023-05-07T01:01:03;2.30;;;1.00;;
78887;SDS011;68276;49.326;8.690;2023-05-07T01:03:28;2.58;;;1.02;;
78887;SDS011;68276;49.326;8.690;2023-05-07T01:05:54;2.97;;;0.85;;
78887;SDS011;68276;49.326;8.690;2023-05-07T01:08:22;3.58;;;1.00;;
78887;SDS011;68276;49.326;8.690;2023-05-07T01:10:49;3.05;;;1.10;;
78887;SDS011;68276;49.326;8.690;2023-05-07T01:13:16;5.40;;;1.00;;
78887;SDS011;68276;49.326;8.690;2023-05-07T01:15:42;2.25;;;0.90;;
78887;SDS011;68276;49.326;8.690;2023-05-07T01:20:33;4.40;;;1.30;;
78887;SDS011;68276;49.326;8.690;2023-05-07T01:22:59;3.22;;;0.80;;
78887;SDS011;68276;49.326;8.690;2023-05-07T01:25:25;2.83;;;0.90;;
78887;SDS011;68276;49.326;8.690;2023-05-07T01:27:51;4.43;;;1.00;;
78887;SDS011;68276;49.326;8.690;2023-05-07T01:30:17;3.97;;;1.15;;
78887;SDS011;68276;49.326;8.690;2023-05-07T01:32:53;2.47;;;0.98;;
78887;SDS011;68276;49.326;8.690;2023-05-07T01:35:27;4.30;;;1.10;;
78887;SDS011;68276;49.326;8.690;2023-05-07T01:37:57;4.25;;;1.20;;
78887;SDS011;68276;49.326;8.690;2023-05-07T01:40:23;2.80;;;0.73;;
78887;SDS011;68276;49.326;8.690;2023-05-07T01:42:50;4.95;;;0.98;;
78887;SDS011;68276;49.326;8.690;2023-05-07T01:45:16;2.00;;;1.10;;
78887;SDS011;68276;49.326;8.690;2023-05-07T01:47:41;4.18;;;1.00;;
78887;SDS011;68276;49.326;8.690;2023-05-07T01:50:07;4.20;;;1.00;;
78887;SDS011;68276;49.326;8.690;2023-05-07T01:52:35;4.05;;;1.10;;
78887;SDS011;68276;49.326;8.690;2023-05-07T01:55:02;3.20;;;0.93;;
78887;SDS011;68276;49.326;8.690;2023-05-07T01:57:28;2.10;;;0.90;;
78887;SDS011;68276;49.326;8.690;2023-05-07T01:59:53;3.67;;;1.00;;
78887;SDS011;68276;49.326;8.690;2023-05-07T02:02:19;2.95;;;1.00;;
78887;SDS011;68276;49.326;8.690;2023-05-07T02:04:44;2.70;;;0.95;;
78887;SDS011;68276;49.326;8.690;2023-05-07T02:07:10;3.35;;;1.05;;
78887;SDS011;68276;49.326;8.690;2023-05-07T02:09:35;4.07;;;0.80;;
78887;SDS011;68276;49.326;8.690;2023-05-07T02:12:00;2.65;;;1.00;;
78887;SDS011;68276;49.326;8.690;2023-05-07T02:14:26;4.05;;;1.23;;
78887;SDS011;68276;49.326;8.690;2023-05-07T02:16:51;3.37;;;0.90;;
78887;SDS011;68276;49.326;8.690;2023-05-07T02:19:17;3.03;;;1.00;;
78887;SDS011;68276;49.326;8.690;2023-05-07T02:21:43;4.18;;;1.08;;
78887;SDS011;68276;49.326;8.690;2023-05-07T02:24:08;3.20;;;0.93;;
78887;SDS011;68276;49.326;8.690;2023-05-07T02:26:34;4.15;;;1.20;;
78887;SDS011;68276;49.326;8.690;2023-05-07T02:28:59;2.25;;;1.00;;
78887;SDS011;68276;49.326;8.690;2023-05-07T02:31:25;2.60;;;1.05;;
78887;SDS011;68276;49.326;8.690;2023-05-07T02:33:50;3.15;;;1.00;;
78887;SDS011;68276;49.326;8.690;2023-05-07T02:36:15;3.63;;;1.00;;
78887;SDS011;68276;49.326;8.690;2023-05-07T02:38:41;4.10;;;1.10;;
78887;SDS011;68276;49.326;8.690;2023-05-07T02:41:06;3.42;;;1.10;;
78887;SDS011;68276;49.326;8.690;2023-05-07T02:43:32;3.17;;;0.95;;
78887;SDS011;68276;49.326;8.690;2023-05-07T02:46:04;3.88;;;1.42;;
78887;SDS011;68276;49.326;8.690;2023-05-07T02:48:30;2.75;;;1.02;;
78887;SDS011;68276;49.326;8.690;2023-05-07T02:50:56;4.85;;;1.13;;
78887;SDS011;68276;49.326;8.690;2023-05-07T02:53:22;2.10;;;0.90;;
78887;SDS011;68276;49.326;8.690;2023-05-07T02:55:50;3.28;;;1.00;;
78887;SDS011;68276;49.326;8.690;2023-05-07T02:58:15;2.33;;;0.90;;
78887;SDS011;68276;49.326;8.690;2023-05-07T03:00:41;3.40;;;1.10;;
78887;SDS011;68276;49.326;8.690;2023-05-07T03:03:06;5.07;;;1.30;;
78887;SDS011;68276;49.326;8.690;2023-05-07T03:05:32;2.50;;;1.00;;
78887;SDS011;68276;49.326;8.690;2023-05-07T03:07:57;2.67;;;1.20;;
78887;SDS011;68276;49.326;8.690;2023-05-07T03:10:23;3.55;;;1.02;;
78887;SDS011;68276;49.326;8.690;2023-05-07T03:12:48;2.83;;;1.03;;
78887;SDS011;68276;49.326;8.690;2023-05-07T03:15:13;3.47;;;1.00;;
78887;SDS011;68276;49.326;8.690;2023-05-07T03:17:39;2.75;;;0.88;;
78887;SDS011;68276;49.326;8.690;2023-05-07T03:20:05;3.10;;;0.82;;
78887;SDS011;68276;49.326;8.690;2023-05-07T03:24:56;2.90;;;1.03;;
78887;SDS011;68276;49.326;8.690;2023-05-07T03:27:21;2.97;;;1.00;;
78887;SDS011;68276;49.326;8.690;2023-05-07T03:29:47;2.53;;;0.82;;
78887;SDS011;68276;49.326;8.690;2023-05-07T03:32:12;2.60;;;1.00;;
78887;SDS011;68276;49.326;8.690;2023-05-07T03:34:38;4.13;;;0.95;;
78887;SDS011;68276;49.326;8.690;2023-05-07T03:37:03;4.25;;;1.13;;
78887;SDS011;68276;49.326;8.690;2023-05-07T03:39:29;4.65;;;1.17;;
78887;SDS011;68276;49.326;8.690;2023-05-07T03:41:55;3.25;;;1.00;;
78887;SDS011;68276;49.326;8.690;2023-05-07T03:44:20;1.65;;;0.82;;
78887;SDS011;68276;49.326;8.690;2023-05-07T03:46:46;3.05;;;1.10;;
78887;SDS011;68276;49.326;8.690;2023-05-07T03:49:12;3.43;;;1.00;;
78887;SDS011;68276;49.326;8.690;2023-05-07T03:51:37;3.60;;;1.20;;
78887;SDS011;68276;49.326;8.690;2023-05-07T03:54:02;3.57;;;1.00;;
78887;SDS011;68276;49.326;8.690;2023-05-07T03:56:28;3.40;;;1.07;;
78887;SDS011;68276;49.326;8.690;2023-05-07T03:58:53;2.30;;;0.90;;
78887;SDS011;68276;49.326;8.690;2023-05-07T04:01:19;2.85;;;1.02;;
78887;SDS011;68276;49.326;8.690;2023-05-07T04:03:44;2.90;;;1.00;;
78887;SDS011;68276;49.326;8.690;2023-05-07T04:06:10;2.87;;;0.90;;
78887;SDS011;68276;49.326;8.690;2023-05-07T04:08:35;2.30;;;0.80;;
78887;SDS011;68276;49.326;8.690;2023-05-07T04:11:01;2.88;;;0.98;;
78887;SDS011;68276;49.326;8.690;2023-05-07T04:13:26;3.17;;;1.00;;
78887;SDS011;68276;49.326;8.690;2023-05-07T04:15:52;2.83;;;1.02;;
78887;SDS011;68276;49.326;8.690;2023-05-07T04:18:18;3.25;;;1.00;;
78887;SDS011;68276;49.326;8.690;2023-05-07T04:20:45;1.17;;;0.70;;
78887;SDS011;68276;49.326;8.690;2023-05-07T04:23:10;4.20;;;1.15;;
78887;SDS011;68276;49.326;8.690;2023-05-07T04:25:36;5.20;;;1.20;;
78887;SDS011;68276;49.326;8.690;2023-05-07T04:28:01;4.13;;;1.40;;
78887;SDS011;68276;49.326;8.690;2023-05-07T04:30:26;5.20;;;1.85;;
78887;SDS011;68276;49.326;8.690;2023-05-07T04:32:52;4.75;;;1.02;;
78887;SDS011;68276;49.326;8.690;2023-05-07T04:35:18;1.50;;;0.77;;
78887;SDS011;68276;49.326;8.690;2023-05-07T04:37:44;4.10;;;1.00;;
78887;SDS011;68276;49.326;8.690;2023-05-07T04:40:09;3.00;;;1.00;;
78887;SDS011;68276;49.326;8.690;2023-05-07T04:42:35;3.50;;;1.02;;
78887;SDS011;68276;49.326;8.690;2023-05-07T04:45:01;2.90;;;1.00;;
78887;SDS011;68276;49.326;8.690;2023-05-07T04:49:52;3.33;;;1.10;;
78887;SDS011;68276;49.326;8.690;2023-05-07T04:52:17;2.57;;;0.90;;
78887;SDS011;68276;49.326;8.690;2023-05-07T04:54:43;2.43;;;0.90;;
78887;SDS011;68276;49.326;8.690;2023-05-07T04:57:08;2.43;;;1.00;;
78887;SDS011;68276;49.326;8.690;2023-05-07T04:59:33;2.65;;;1.02;;
78887;SDS011;68276;49.326;8.690;2023-05-07T05:01:59;4.20;;;1.10;;
78887;SDS011;68276;49.326;8.690;2023-05-07T05:04:24;3.30;;;1.00;;
78887;SDS011;68276;49.326;8.690;2023-05-07T05:06:50;4.97;;;1.10;;
78887;SDS011;68276;49.326;8.690;2023-05-07T05:09:16;2.50;;;0.90;;
78887;SDS011;68276;49.326;8.690;2023-05-07T05:11:41;3.55;;;1.08;;
78887;SDS011;68276;49.326;8.690;2023-05-07T05:14:07;4.18;;;1.00;;
78887;SDS011;68276;49.326;8.690;2023-05-07T05:16:32;3.88;;;1.00;;
78887;SDS011;68276;49.326;8.690;2023-05-07T05:18:58;3.97;;;1.00;;
78887;SDS011;68276;49.326;8.690;2023-05-07T05:21:24;4.57;;;1.35;;
78887;SDS011;68276;49.326;8.690;2023-05-07T05:23:49;2.37;;;1.00;;
78887;SDS011;68276;49.326;8.690;2023-05-07T05:26:15;2.45;;;0.90;;
78887;SDS011;68276;49.326;8.690;2023-05-07T05:28:40;2.35;;;0.98;;
78887;SDS011;68276;49.326;8.690;2023-05-07T05:31:05;3.63;;;1.00;;
78887;SDS011;68276;49.326;8.690;2023-05-07T05:33:31;3.13;;;1.05;;
78887;SDS011;68276;49.326;8.690;2023-05-07T05:35:56;3.17;;;1.20;;
78887;SDS011;68276;49.326;8.690;2023-05-07T05:38:22;5.28;;;1.50;;
78887;SDS011;68276;49.326;8.690;2023-05-07T05:40:47;2.88;;;1.02;;
78887;SDS011;68276;49.326;8.690;2023-05-07T05:43:13;4.90;;;1.20;;
78887;SDS011;68276;49.326;8.690;2023-05-07T05:48:05;2.58;;;1.00;;
78887;SDS011;68276;49.326;8.690;2023-05-07T05:50:30;5.88;;;1.30;;
78887;SDS011;68276;49.326;8.690;2023-05-07T05:52:56;2.42;;;1.10;;
78887;SDS011;68276;49.326;8.690;2023-05-07T05:55:23;3.78;;;1.33;;
78887;SDS011;68276;49.326;8.690;2023-05-07T05:57:49;4.13;;;1.20;;
78887;SDS011;68276;49.326;8.690;2023-05-07T06:00:15;2.88;;;1.10;;
78887;SDS011;68276;49.326;8.690;2023-05-07T06:02:41;5.97;;;1.30;;
78887;SDS011;68276;49.326;8.690;2023-05-07T06:05:07;2.80;;;1.20;;
78887;SDS011;68276;49.326;8.690;2023-05-07T06:07:33;3.45;;;1.33;;
78887;SDS011;68276;49.326;8.690;2023-05-07T06:10:00;4.05;;;1.30;;
78887;SDS011;68276;49.326;8.690;2023-05-07T06:12:28;5.03;;;1.35;;
78887;SDS011;68276;49.326;8.690;2023-05-07T06:14:54;5.35;;;1.30;;
78887;SDS011;68276;49.326;8.690;2023-05-07T06:17:19;4.35;;;1.40;;
78887;SDS011;68276;49.326;8.690;2023-05-07T06:19:45;3.38;;;1.20;;
78887;SDS011;68276;49.326;8.690;2023-05-07T06:22:10;3.03;;;0.88;;
78887;SDS011;68276;49.326;8.690;2023-05-07T06:24:36;4.68;;;1.15;;
78887;SDS011;68276;49.326;8.690;2023-05-07T06:27:01;3.97;;;1.20;;
78887;SDS011;68276;49.326;8.690;2023-05-07T06:29:26;3.95;;;1.13;;
78887;SDS011;68276;49.326;8.690;2023-05-07T06:31:52;3.80;;;1.23;;
78887;SDS011;68276;49.326;8.690;2023-05-07T06:34:18;4.15;;;1.30;;
78887;SDS011;68276;49.326;8.690;2023-05-07T06:36:43;3.45;;;1.33;;
78887;SDS011;68276;49.326;8.690;2023-05-07T06:39:08;5.25;;;1.52;;
78887;SDS011;68276;49.326;8.690;2023-05-07T06:41:34;3.63;;;1.15;;
78887;SDS011;68276;49.326;8.690;2023-05-07T06:44:01;5.15;;;1.40;;
78887;SDS011;68276;49.326;8.690;2023-05-07T06:46:29;4.90;;;1.40;;
78887;SDS011;68276;49.326;8.690;2023-05-07T06:48:55;3.15;;;1.00;;
78887;SDS011;68276;49.326;8.690;2023-05-07T06:51:21;3.53;;;1.20;;
78887;SDS011;68276;49.326;8.690;2023-05-07T06:53:47;4.45;;;1.40;;
78887;SDS011;68276;49.326;8.690;2023-05-07T06:56:12;4.27;;;1.30;;
78887;SDS011;68276;49.326;8.690;2023-05-07T06:58:37;3.40;;;1.10;;
78887;SDS011;68276;49.326;8.690;2023-05-07T07:01:03;4.03;;;1.33;;
78887;SDS011;68276;49.326;8.690;2023-05-07T07:03:28;3.92;;;1.20;;
78887;SDS011;68276;49.326;8.690;2023-05-07T07:05:54;6.22;;;1.40;;
78887;SDS011;68276;49.326;8.690;2023-05-07T07:08:20;4.72;;;1.40;;
78887;SDS011;68276;49.326;8.690;2023-05-07T07:10:47;5.93;;;1.42;;
78887;SDS011;68276;49.326;8.690;2023-05-07T07:13:12;6.95;;;1.38;;
78887;SDS011;68276;49.326;8.690;2023-05-07T07:15:38;5.07;;;1.25;;
78887;SDS011;68276;49.326;8.690;2023-05-07T07:18:05;2.47;;;1.10;;
78887;SDS011;68276;49.326;8.690;2023-05-07T07:20:31;4.45;;;1.15;;
78887;SDS011;68276;49.326;8.690;2023-05-07T07:22:56;4.75;;;1.27;;
78887;SDS011;68276;49.326;8.690;2023-05-07T07:25:22;3.95;;;1.33;;
78887;SDS011;68276;49.326;8.690;2023-05-07T07:30:14;4.65;;;1.52;;
78887;SDS011;68276;49.326;8.690;2023-05-07T07:32:39;3.40;;;1.33;;
78887;SDS011;68276;49.326;8.690;2023-05-07T07:35:05;4.53;;;1.40;;
78887;SDS011;68276;49.326;8.690;2023-05-07T07:37:31;4.30;;;1.20;;
78887;SDS011;68276;49.326;8.690;2023-05-07T07:39:56;3.43;;;1.50;;
78887;SDS011;68276;49.326;8.690;2023-05-07T07:42:21;4.05;;;1.27;;
78887;SDS011;68276;49.326;8.690;2023-05-07T07:44:47;5.40;;;1.30;;
78887;SDS011;68276;49.326;8.690;2023-05-07T07:47:13;4.95;;;1.38;;
78887;SDS011;68276;49.326;8.690;2023-05-07T07:49:38;4.38;;;1.48;;
78887;SDS011;68276;49.326;8.690;2023-05-07T07:52:04;2.93;;;1.10;;
78887;SDS011;68276;49.326;8.690;2023-05-07T07:54:29;4.40;;;1.50;;
78887;SDS011;68276;49.326;8.690;2023-05-07T07:56:55;5.32;;;1.20;;
78887;SDS011;68276;49.326;8.690;2023-05-07T07:59:20;4.70;;;1.40;;
78887;SDS011;68276;49.326;8.690;2023-05-07T08:01:46;5.13;;;1.40;;
78887;SDS011;68276;49.326;8.690;2023-05-07T08:04:13;5.32;;;1.50;;
78887;SDS011;68276;49.326;8.690;2023-05-07T08:06:38;5.25;;;1.40;;
78887;SDS011;68276;49.326;8.690;2023-05-07T08:09:04;5.05;;;1.63;;
78887;SDS011;68276;49.326;8.690;2023-05-07T08:11:29;3.77;;;1.30;;
78887;SDS011;68276;49.326;8.690;2023-05-07T08:13:54;3.83;;;1.30;;
78887;SDS011;68276;49.326;8.690;2023-05-07T08:16:21;6.10;;;1.30;;
78887;SDS011;68276;49.326;8.690;2023-05-07T08:18:46;5.00;;;1.60;;
78887;SDS011;68276;49.326;8.690;2023-05-07T08:21:11;5.30;;;1.30;;
78887;SDS011;68276;49.326;8.690;2023-05-07T08:23:37;5.40;;;1.55;;
78887;SDS011;68276;49.326;8.690;2023-05-07T08:26:02;4.43;;;1.70;;
78887;SDS011;68276;49.326;8.690;2023-05-07T08:28:28;4.32;;;1.60;;
78887;SDS011;68276;49.326;8.690;2023-05-07T08:30:53;4.72;;;1.50;;
78887;SDS011;68276;49.326;8.690;2023-05-07T08:35:44;3.20;;;1.35;;
78887;SDS011;68276;49.326;8.690;2023-05-07T08:40:39;5.57;;;1.53;;
78887;SDS011;68276;49.326;8.690;2023-05-07T08:43:06;5.30;;;1.60;;
78887;SDS011;68276;49.326;8.690;2023-05-07T08:47:58;4.03;;;1.40;;
78887;SDS011;68276;49.326;8.690;2023-05-07T08:50:26;5.40;;;1.50;;
78887;SDS011;68276;49.326;8.690;2023-05-07T08:52:52;4.65;;;1.40;;
78887;SDS011;68276;49.326;8.690;2023-05-07T08:55:17;5.47;;;1.67;;
78887;SDS011;68276;49.326;8.690;2023-05-07T08:57:43;4.75;;;1.50;;
78887;SDS011;68276;49.326;8.690;2023-05-07T09:00:09;5.57;;;1.40;;
78887;SDS011;68276;49.326;8.690;2023-05-07T09:02:36;6.32;;;1.90;;
78887;SDS011;68276;49.326;8.690;2023-05-07T09:07:27;4.75;;;1.50;;
78887;SDS011;68276;49.326;8.690;2023-05-07T09:12:20;4.53;;;1.45;;
78887;SDS011;68276;49.326;8.690;2023-05-07T09:17:12;5.90;;;1.50;;
78887;SDS011;68276;49.326;8.690;2023-05-07T09:19:37;4.18;;;1.60;;
78887;SDS011;68276;49.326;8.690;2023-05-07T09:24:30;4.70;;;1.50;;
78887;SDS011;68276;49.326;8.690;2023-05-07T09:27:00;5.47;;;1.48;;
78887;SDS011;68276;49.326;8.690;2023-05-07T09:29:27;5.05;;;1.40;;
78887;SDS011;68276;49.326;8.690;2023-05-07T09:32:00;5.47;;;1.45;;
78887;SDS011;68276;49.326;8.690;2023-05-07T09:34:30;5.15;;;1.65;;
78887;SDS011;68276;49.326;8.690;2023-05-07T09:39:21;5.85;;;1.55;;
78887;SDS011;68276;49.326;8.690;2023-05-07T09:41:48;4.85;;;1.73;;
78887;SDS011;68276;49.326;8.690;2023-05-07T09:44:20;8.07;;;1.75;;
78887;SDS011;68276;49.326;8.690;2023-05-07T09:46:46;4.43;;;1.50;;
78887;SDS011;68276;49.326;8.690;2023-05-07T09:49:22;4.07;;;1.63;;
78887;SDS011;68276;49.326;8.690;2023-05-07T09:51:49;4.50;;;1.67;;
78887;SDS011;68276;49.326;8.690;2023-05-07T09:54:16;6.72;;;1.70;;
78887;SDS011;68276;49.326;8.690;2023-05-07T09:56:43;6.10;;;1.40;;
78887;SDS011;68276;49.326;8.690;2023-05-07T09:59:13;4.88;;;1.48;;
78887;SDS011;68276;49.326;8.690;2023-05-07T10:01:41;5.85;;;1.65;;
78887;SDS011;68276;49.326;8.690;2023-05-07T10:04:08;4.68;;;1.55;;
78887;SDS011;68276;49.326;8.690;2023-05-07T10:06:35;6.78;;;1.77;;
78887;SDS011;68276;49.326;8.690;2023-05-07T10:09:04;5.05;;;1.70;;
78887;SDS011;68276;49.326;8.690;2023-05-07T10:11:36;4.15;;;1.42;;
78887;SDS011;68276;49.326;8.690;2023-05-07T10:14:02;4.45;;;1.40;;
78887;SDS011;68276;49.326;8.690;2023-05-07T10:16:34;4.15;;;1.50;;
78887;SDS011;68276;49.326;8.690;2023-05-07T10:19:04;6.60;;;1.50;;
78887;SDS011;68276;49.326;8.690;2023-05-07T10:21:31;3.90;;;1.50;;
78887;SDS011;68276;49.326;8.690;2023-05-07T10:24:15;5.32;;;1.70;;
78887;SDS011;68276;49.326;8.690;2023-05-07T10:26:45;6.40;;;1.55;;
78887;SDS011;68276;49.326;8.690;2023-05-07T10:29:37;5.15;;;1.52;;
78887;SDS011;68276;49.326;8.690;2023-05-07T10:34:50;4.22;;;1.50;;
78887;SDS011;68276;49.326;8.690;2023-05-07T10:37:20;4.75;;;1.40;;
78887;SDS011;68276;49.326;8.690;2023-05-07T10:39:47;3.80;;;1.27;;
78887;SDS011;68276;49.326;8.690;2023-05-07T10:42:15;6.32;;;1.55;;
78887;SDS011;68276;49.326;8.690;2023-05-07T10:44:41;3.63;;;1.38;;
78887;SDS011;68276;49.326;8.690;2023-05-07T10:47:07;7.68;;;1.90;;
78887;SDS011;68276;49.326;8.690;2023-05-07T10:49:51;6.13;;;1.55;;
78887;SDS011;68276;49.326;8.690;2023-05-07T10:52:31;5.05;;;1.50;;
78887;SDS011;68276;49.326;8.690;2023-05-07T10:57:40;4.90;;;1.55;;
78887;SDS011;68276;49.326;8.690;2023-05-07T11:05:30;6.30;;;1.55;;
78887;SDS011;68276;49.326;8.690;2023-05-07T11:07:57;4.78;;;1.48;;
78887;SDS011;68276;49.326;8.690;2023-05-07T11:13:15;4.15;;;1.50;;
78887;SDS011;68276;49.326;8.690;2023-05-07T11:15:43;5.35;;;1.52;;
78887;SDS011;68276;49.326;8.690;2023-05-07T11:18:10;5.82;;;1.55;;
78887;SDS011;68276;49.326;8.690;2023-05-07T11:20:49;4.07;;;1.45;;
78887;SDS011;68276;49.326;8.690;2023-05-07T11:28:41;3.92;;;1.58;;
78887;SDS011;68276;49.326;8.690;2023-05-07T11:31:09;3.63;;;1.30;;
78887;SDS011;68276;49.326;8.690;2023-05-07T11:33:36;3.92;;;1.23;;
78887;SDS011;68276;49.326;8.690;2023-05-07T11:36:02;5.47;;;1.40;;
78887;SDS011;68276;49.326;8.690;2023-05-07T11:38:38;4.30;;;1.20;;
78887;SDS011;68276;49.326;8.690;2023-05-07T11:41:04;3.45;;;1.30;;
78887;SDS011;68276;49.326;8.690;2023-05-07T11:43:30;3.72;;;1.20;;
78887;SDS011;68276;49.326;8.690;2023-05-07T11:46:04;4.68;;;1.38;;
78887;SDS011;68276;49.326;8.690;2023-05-07T11:48:34;3.75;;;1.30;;
78887;SDS011;68276;49.326;8.690;2023-05-07T11:51:04;3.28;;;1.30;;
78887;SDS011;68276;49.326;8.690;2023-05-07T11:53:38;3.75;;;1.42;;
78887;SDS011;68276;49.326;8.690;2023-05-07T11:58:34;3.58;;;1.35;;
78887;SDS011;68276;49.326;8.690;2023-05-07T12:00:59;3.78;;;1.40;;
78887;SDS011;68276;49.326;8.690;2023-05-07T12:03:25;3.85;;;1.40;;
78887;SDS011;68276;49.326;8.690;2023-05-07T12:05:50;3.92;;;1.40;;
78887;SDS011;68276;49.326;8.690;2023-05-07T12:08:16;5.32;;;1.70;;
78887;SDS011;68276;49.326;8.690;2023-05-07T12:10:46;3.25;;;1.25;;
78887;SDS011;68276;49.326;8.690;2023-05-07T12:15:46;4.07;;;1.42;;
78887;SDS011;68276;49.326;8.690;2023-05-07T12:18:15;2.78;;;1.20;;
78887;SDS011;68276;49.326;8.690;2023-05-07T12:20:41;7.88;;;2.47;;
78887;SDS011;68276;49.326;8.690;2023-05-07T12:23:07;4.53;;;1.60;;
78887;SDS011;68276;49.326;8.690;2023-05-07T12:25:36;6.40;;;2.50;;
78887;SDS011;68276;49.326;8.690;2023-05-07T12:28:02;4.38;;;1.50;;
78887;SDS011;68276;49.326;8.690;2023-05-07T12:30:40;4.60;;;1.40;;
78887;SDS011;68276;49.326;8.690;2023-05-07T12:33:07;5.03;;;1.50;;
78887;SDS011;68276;49.326;8.690;2023-05-07T12:35:39;6.18;;;1.70;;
78887;SDS011;68276;49.326;8.690;2023-05-07T12:38:09;3.97;;;1.45;;
78887;SDS011;68276;49.326;8.690;2023-05-07T12:43:03;3.70;;;1.40;;
78887;SDS011;68276;49.326;8.690;2023-05-07T12:45:28;6.07;;;1.60;;
78887;SDS011;68276;49.326;8.690;2023-05-07T12:47:53;4.47;;;1.50;;
78887;SDS011;68276;49.326;8.690;2023-05-07T12:50:19;4.38;;;1.30;;
78887;SDS011;68276;49.326;8.690;2023-05-07T12:52:47;4.20;;;1.40;;
78887;SDS011;68276;49.326;8.690;2023-05-07T12:55:16;4.53;;;1.60;;
78887;SDS011;68276;49.326;8.690;2023-05-07T12:57:43;4.13;;;1.40;;
78887;SDS011;68276;49.326;8.690;2023-05-07T13:00:13;4.43;;;1.30;;
78887;SDS011;68276;49.326;8.690;2023-05-07T13:02:40;4.80;;;1.40;;
78887;SDS011;68276;49.326;8.690;2023-05-07T13:05:07;4.85;;;1.48;;
78887;SDS011;68276;49.326;8.690;2023-05-07T13:07:33;3.28;;;1.27;;
78887;SDS011;68276;49.326;8.690;2023-05-07T13:09:59;6.57;;;1.48;;
78887;SDS011;68276;49.326;8.690;2023-05-07T13:12:25;5.35;;;1.60;;
78887;SDS011;68276;49.326;8.690;2023-05-07T13:14:50;4.80;;;1.30;;
78887;SDS011;68276;49.326;8.690;2023-05-07T13:17:16;6.18;;;1.48;;
78887;SDS011;68276;49.326;8.690;2023-05-07T13:19:41;5.47;;;1.57;;
78887;SDS011;68276;49.326;8.690;2023-05-07T13:22:06;5.33;;;1.40;;
78887;SDS011;68276;49.326;8.690;2023-05-07T13:24:33;3.95;;;1.52;;
78887;SDS011;68276;49.326;8.690;2023-05-07T13:26:58;5.37;;;1.50;;
78887;SDS011;68276;49.326;8.690;2023-05-07T13:29:25;3.73;;;1.33;;
78887;SDS011;68276;49.326;8.690;2023-05-07T13:31:55;4.07;;;1.30;;
78887;SDS011;68276;49.326;8.690;2023-05-07T13:34:21;4.50;;;1.30;;
78887;SDS011;68276;49.326;8.690;2023-05-07T13:36:46;4.47;;;1.30;;
78887;SDS011;68276;49.326;8.690;2023-05-07T13:39:12;4.22;;;1.30;;
78887;SDS011;68276;49.326;8.690;2023-05-07T13:41:37;3.37;;;1.20;;
78887;SDS011;68276;49.326;8.690;2023-05-07T13:44:03;4.47;;;1.53;;
78887;SDS011;68276;49.326;8.690;2023-05-07T13:46:28;3.30;;;1.25;;
78887;SDS011;68276;49.326;8.690;2023-05-07T13:48:54;5.43;;;1.40;;
78887;SDS011;68276;49.326;8.690;2023-05-07T13:51:20;6.25;;;1.50;;
78887;SDS011;68276;49.326;8.690;2023-05-07T13:53:46;5.53;;;1.50;;
78887;SDS011;68276;49.326;8.690;2023-05-07T13:56:12;2.63;;;1.10;;
78887;SDS011;68276;49.326;8.690;2023-05-07T13:58:37;4.70;;;1.50;;
78887;SDS011;68276;49.326;8.690;2023-05-07T14:01:03;3.90;;;1.50;;
78887;SDS011;68276;49.326;8.690;2023-05-07T14:03:29;4.40;;;1.48;;
78887;SDS011;68276;49.326;8.690;2023-05-07T14:05:56;3.88;;;1.38;;
78887;SDS011;68276;49.326;8.690;2023-05-07T14:08:22;5.85;;;1.50;;
78887;SDS011;68276;49.326;8.690;2023-05-07T14:10:48;4.72;;;1.48;;
78887;SDS011;68276;49.326;8.690;2023-05-07T14:13:13;6.90;;;1.83;;
78887;SDS011;68276;49.326;8.690;2023-05-07T14:15:39;3.15;;;1.10;;
78887;SDS011;68276;49.326;8.690;2023-05-07T14:18:05;5.30;;;1.38;;
78887;SDS011;68276;49.326;8.690;2023-05-07T14:22:56;5.07;;;1.40;;
78887;SDS011;68276;49.326;8.690;2023-05-07T14:25:21;6.77;;;1.60;;
78887;SDS011;68276;49.326;8.690;2023-05-07T14:27:47;6.40;;;1.45;;
78887;SDS011;68276;49.326;8.690;2023-05-07T14:30:12;3.13;;;1.00;;
78887;SDS011;68276;49.326;8.690;2023-05-07T14:32:38;3.25;;;1.13;;
78887;SDS011;68276;49.326;8.690;2023-05-07T14:35:03;5.28;;;1.25;;
78887;SDS011;68276;49.326;8.690;2023-05-07T14:37:29;3.35;;;1.00;;
78887;SDS011;68276;49.326;8.690;2023-05-07T14:39:55;6.35;;;1.40;;
78887;SDS011;68276;49.326;8.690;2023-05-07T14:42:20;5.82;;;1.48;;
78887;SDS011;68276;49.326;8.690;2023-05-07T14:44:46;4.33;;;1.20;;
78887;SDS011;68276;49.326;8.690;2023-05-07T14:47:13;4.85;;;1.13;;
78887;SDS011;68276;49.326;8.690;2023-05-07T14:49:38;5.15;;;1.25;;
78887;SDS011;68276;49.326;8.690;2023-05-07T14:52:05;4.00;;;1.17;;
78887;SDS011;68276;49.326;8.690;2023-05-07T14:54:33;7.65;;;1.05;;
78887;SDS011;68276;49.326;8.690;2023-05-07T14:57:00;4.95;;;1.25;;
78887;SDS011;68276;49.326;8.690;2023-05-07T14:59:26;6.47;;;1.27;;
78887;SDS011;68276;49.326;8.690;2023-05-07T15:01:51;4.22;;;1.10;;
78887;SDS011;68276;49.326;8.690;2023-05-07T15:04:17;5.50;;;1.00;;
78887;SDS011;68276;49.326;8.690;2023-05-07T15:06:42;4.07;;;1.30;;
78887;SDS011;68276;49.326;8.690;2023-05-07T15:09:07;5.03;;;1.10;;
78887;SDS011;68276;49.326;8.690;2023-05-07T15:11:34;3.75;;;1.00;;
78887;SDS011;68276;49.326;8.690;2023-05-07T15:13:59;4.60;;;1.25;;
78887;SDS011;68276;49.326;8.690;2023-05-07T15:16:25;6.18;;;1.10;;
78887;SDS011;68276;49.326;8.690;2023-05-07T15:18:50;6.20;;;1.27;;
78887;SDS011;68276;49.326;8.690;2023-05-07T15:21:16;4.47;;;1.20;;
78887;SDS011;68276;49.326;8.690;2023-05-07T15:23:41;6.25;;;1.33;;
78887;SDS011;68276;49.326;8.690;2023-05-07T15:26:06;3.70;;;1.23;;
78887;SDS011;68276;49.326;8.690;2023-05-07T15:28:33;5.38;;;1.35;;
78887;SDS011;68276;49.326;8.690;2023-05-07T15:30:59;4.50;;;1.20;;
78887;SDS011;68276;49.326;8.690;2023-05-07T15:33:24;3.65;;;1.10;;
78887;SDS011;68276;49.326;8.690;2023-05-07T15:35:49;4.43;;;1.30;;
78887;SDS011;68276;49.326;8.690;2023-05-07T15:38:15;5.63;;;1.27;;
78887;SDS011;68276;49.326;8.690;2023-05-07T15:40:40;5.07;;;1.45;;
78887;SDS011;68276;49.326;8.690;2023-05-07T15:43:09;6.05;;;1.27;;